createdAt,value
2022-09-04T13:56:15.810Z,3.00
2022-09-04T13:58:50.438Z,3.20
2022-09-04T14:01:27.039Z,2.00
2022-09-04T14:04:08.211Z,2.00
2022-09-04T14:06:38.961Z,3.00
2022-09-04T14:09:10.231Z,2.20
2022-09-04T14:12:09.742Z,3.00
2022-09-04T14:14:55.254Z,4.60
2022-09-04T14:17:28.980Z,3.00
2022-09-04T14:20:22.379Z,1.80
2022-09-04T14:22:59.056Z,2.00
2022-09-04T14:25:34.230Z,1.40
2022-09-04T14:28:24.300Z,3.00
2022-09-04T14:30:59.296Z,5.20
2022-09-04T14:33:50.189Z,3.20
2022-09-04T14:36:32.840Z,2.40
2022-09-04T14:39:04.811Z,9.50
2022-09-04T14:41:48.971Z,4.60
2022-09-04T14:44:41.814Z,2.00
2022-09-04T14:47:30.173Z,1.60
2022-09-04T14:50:04.474Z,2.40
2022-09-04T14:52:39.781Z,3.00
2022-09-04T14:55:11.913Z,3.40
2022-09-04T14:58:00.363Z,1.80
2022-09-04T15:00:30.170Z,1.80
2022-09-04T15:03:05.000Z,3.00
2022-09-04T15:05:53.727Z,0.50
2022-09-04T15:08:40.018Z,1.00
2022-09-04T15:11:09.272Z,1.50
2022-09-04T15:13:50.826Z,2.75
2022-09-04T15:16:40.803Z,2.00
2022-09-04T15:19:15.722Z,3.00
2022-09-04T15:22:05.542Z,15.50
2022-09-04T15:24:46.906Z,38.00
2022-09-04T15:27:28.815Z,39.50
2022-09-04T15:30:11.948Z,37.50
2022-09-04T15:32:43.339Z,37.50
2022-09-04T15:35:32.747Z,37.50
2022-09-04T15:38:25.098Z,39.50
2022-09-04T15:41:17.604Z,38.50
2022-09-04T15:43:44.639Z,36.50
2022-09-04T15:46:16.592Z,44.50
2022-09-04T15:48:52.898Z,40.75
2022-09-04T15:51:46.360Z,38.00
2022-09-04T15:54:30.933Z,39.75
2022-09-04T15:57:08.596Z,34.25
2022-09-04T15:59:52.692Z,38.00
2022-09-04T16:02:41.509Z,34.25
2022-09-04T16:05:20.590Z,22.00
2022-09-04T16:07:54.568Z,2.50
2022-09-04T16:10:30.001Z,2.00
2022-09-04T16:13:02.209Z,5.00
2022-09-04T16:15:36.903Z,13.25
2022-09-04T16:18:11.737Z,27.25
2022-09-04T16:20:52.910Z,28.00
2022-09-04T16:23:34.819Z,24.00
2022-09-04T16:26:19.509Z,30.00
2022-09-04T16:28:51.738Z,29.75
2022-09-04T16:31:34.362Z,25.75
2022-09-04T16:34:24.339Z,18.00
2022-09-04T16:37:00.491Z,19.00
2022-09-04T16:39:36.515Z,9.00
2022-09-04T16:42:20.415Z,5.00
2022-09-04T16:45:01.493Z,15.50
2022-09-04T16:47:45.981Z,21.25
2022-09-04T16:50:29.673Z,31.75
2022-09-04T16:53:12.756Z,33.00
2022-09-04T16:55:36.592Z,39.00
2022-09-04T16:58:09.170Z,37.00
2022-09-04T17:01:13.728Z,37.00
2022-09-04T17:04:13.231Z,34.00
2022-09-04T17:06:39.120Z,33.00
2022-09-04T17:09:15.444Z,34.50
2022-09-04T17:11:55.942Z,35.25
2022-09-04T17:14:24.504Z,33.25
2022-09-04T17:17:00.495Z,23.75
2022-09-04T17:19:29.561Z,10.00
2022-09-04T17:26:49.525Z,0.50
2022-09-04T17:29:02.284Z,0.75
2022-09-04T17:29:08.058Z,0.00
2022-09-04T17:30:25.530Z,5.00
2022-09-04T17:36:24.967Z,15.25
2022-09-04T17:40:35.190Z,17.50
2022-09-04T17:40:44.216Z,22.25
2022-09-04T17:41:39.792Z,27.50
2022-09-04T17:44:07.953Z,34.75
2022-09-04T17:46:48.701Z,17.75
2022-09-04T17:49:34.709Z,12.50
2022-09-04T17:52:07.669Z,23.00
2022-09-04T17:54:48.889Z,14.75
2022-09-04T17:57:22.251Z,6.25
2022-09-04T18:00:03.135Z,2.00
2022-09-04T18:02:44.170Z,3.00
2022-09-04T18:05:45.900Z,1.00
2022-09-04T18:08:12.094Z,2.00
2022-09-04T18:10:53.282Z,8.50
2022-09-04T18:13:37.512Z,12.75
2022-09-04T18:16:33.512Z,7.75
2022-09-04T18:19:23.420Z,27.75
2022-09-04T18:22:26.481Z,10.75
2022-09-04T18:24:54.490Z,13.00
2022-09-04T18:27:29.348Z,6.50
2022-09-04T18:32:31.761Z,8.50
2022-09-04T18:37:18.212Z,6.00
2022-09-04T18:37:26.906Z,10.75
2022-09-04T18:37:55.242Z,5.00
2022-09-04T18:41:00.775Z,6.50
2022-09-04T18:50:24.235Z,4.50
2022-09-04T18:50:29.023Z,2.00
2022-09-04T18:50:50.391Z,4.00
2022-09-04T18:51:18.734Z,3.00
2022-09-04T18:53:51.315Z,6.75
2022-09-04T18:56:32.423Z,5.75
2022-09-04T18:59:16.011Z,8.75
2022-09-04T19:01:50.659Z,6.25
2022-09-04T19:04:37.570Z,6.75
2022-09-04T19:07:27.309Z,6.25
2022-09-04T19:10:14.017Z,4.50
2022-09-04T19:12:48.673Z,7.00
2022-09-04T19:15:37.754Z,5.00
2022-09-04T19:18:12.891Z,7.00
2022-09-04T19:20:53.869Z,6.00
2022-09-04T19:23:35.843Z,7.25
2022-09-04T19:26:13.631Z,0.50
2022-09-04T19:28:53.114Z,6.75
2022-09-04T19:31:22.084Z,9.50
2022-09-04T19:34:13.822Z,7.00
2022-09-04T19:36:54.708Z,5.50
2022-09-04T19:46:02.604Z,6.00
2022-09-04T19:46:15.504Z,7.75
2022-09-04T19:46:19.010Z,6.00
2022-09-04T19:47:54.334Z,6.00
2022-09-04T19:53:19.047Z,7.00
2022-09-04T19:53:38.615Z,6.25
2022-09-04T19:56:07.001Z,7.50
2022-09-04T19:59:08.679Z,6.25
2022-09-04T20:01:46.554Z,7.25
2022-09-04T20:04:30.734Z,7.00
2022-09-04T20:07:05.866Z,9.00
2022-09-04T20:09:49.422Z,10.25
2022-09-04T20:12:21.329Z,10.00
2022-09-04T20:14:56.281Z,4.25
2022-09-04T20:17:28.251Z,9.50
2022-09-04T20:20:00.182Z,9.00
2022-09-04T20:22:42.318Z,7.50
2022-09-04T20:25:35.350Z,10.00
2022-09-04T20:28:16.714Z,8.75
2022-09-04T20:30:49.704Z,11.00
2022-09-04T20:33:24.566Z,8.75
2022-09-04T20:36:03.373Z,11.00
2022-09-04T20:38:47.281Z,9.00
2022-09-04T20:41:24.884Z,11.00
2022-09-04T20:43:59.546Z,16.25
2022-09-04T20:52:45.670Z,18.00
2022-09-04T20:52:52.232Z,11.50
2022-09-04T20:53:06.362Z,12.00
2022-09-04T20:55:31.744Z,10.50
2022-09-04T21:03:13.285Z,13.00
2022-09-04T21:03:24.229Z,11.00
2022-09-04T21:03:46.807Z,12.75
2022-09-04T21:06:27.939Z,13.00
2022-09-04T21:09:12.084Z,15.00
2022-09-04T21:11:44.169Z,11.00
2022-09-04T21:14:16.150Z,12.00
2022-09-04T21:16:57.214Z,10.75
2022-09-04T21:19:57.898Z,13.50
2022-09-04T21:22:52.411Z,10.00
2022-09-04T21:25:53.377Z,10.75
2022-09-04T21:28:37.093Z,13.00
2022-09-04T21:31:12.928Z,12.00
2022-09-04T21:33:50.951Z,13.50
2022-09-04T21:36:27.496Z,11.75
2022-09-04T21:39:20.945Z,11.50
2022-09-04T21:42:17.330Z,13.00
2022-09-04T21:44:50.518Z,11.50
2022-09-04T21:47:32.611Z,14.75
2022-09-04T21:50:32.153Z,12.75
2022-09-04T21:53:26.923Z,11.25
2022-09-04T22:02:29.300Z,13.50
2022-09-04T22:02:37.961Z,11.75
2022-09-04T22:02:44.441Z,14.75
2022-09-04T22:04:47.629Z,7.75
2022-09-04T22:12:50.300Z,13.50
2022-09-04T22:13:34.246Z,11.00
2022-09-04T22:13:48.064Z,14.25
2022-09-04T22:16:33.584Z,14.00
2022-09-04T22:19:39.072Z,10.25
2022-09-04T22:22:23.329Z,12.25
2022-09-04T22:25:09.955Z,13.50
2022-09-04T22:28:08.256Z,13.25
2022-09-04T22:30:37.903Z,9.50
2022-09-04T22:33:18.753Z,12.00
2022-09-04T22:35:56.616Z,15.50
2022-09-04T22:38:54.482Z,11.50
2022-09-04T22:41:46.193Z,15.25
2022-09-04T22:44:46.824Z,11.25
2022-09-04T22:47:33.865Z,10.75
2022-09-04T22:50:48.730Z,13.00
2022-09-04T22:53:05.004Z,11.75
2022-09-04T22:56:05.271Z,13.75
2022-09-04T22:58:37.622Z,15.50
2022-09-04T23:01:38.817Z,12.75
2022-09-04T23:04:22.763Z,15.25
2022-09-04T23:13:41.851Z,16.25
2022-09-04T23:13:59.035Z,17.00
2022-09-04T23:14:00.082Z,13.25
2022-09-04T23:16:02.866Z,16.50
2022-09-04T23:21:31.484Z,14.25
2022-09-04T23:26:47.559Z,13.50
2022-09-04T23:26:49.606Z,13.50
2022-09-04T23:27:46.403Z,14.25
2022-09-04T23:30:27.321Z,14.25
2022-09-04T23:33:26.979Z,14.50
2022-09-04T23:36:07.444Z,12.00
2022-09-04T23:38:39.513Z,18.00
2022-09-04T23:41:11.497Z,14.25
2022-09-04T23:44:15.376Z,15.75
2022-09-04T23:47:01.015Z,15.50
2022-09-04T23:49:57.704Z,16.25
2022-09-04T23:52:51.298Z,15.00
2022-09-04T23:55:43.136Z,17.75
2022-09-04T23:58:49.431Z,15.50
